createdAt,value
2017-02-05T00:00:05.919Z,0
2017-02-05T00:01:15.401Z,0
2017-02-05T00:02:25.300Z,0
2017-02-05T00:03:35.480Z,0
2017-02-05T00:04:44.947Z,0
2017-02-05T00:05:54.382Z,0
2017-02-05T00:07:04.687Z,0
2017-02-05T00:08:15.001Z,0
2017-02-05T00:09:25.511Z,0
2017-02-05T00:10:35.814Z,0
2017-02-05T00:11:46.050Z,0
2017-02-05T00:12:56.329Z,0
2017-02-05T00:14:06.169Z,0
2017-02-05T00:15:16.271Z,0
2017-02-05T00:16:26.159Z,0
2017-02-05T00:17:36.413Z,0
2017-02-05T00:18:46.263Z,0
2017-02-05T00:19:56.578Z,0
2017-02-05T00:21:07.163Z,0
2017-02-05T00:22:16.599Z,0
2017-02-05T00:23:26.963Z,0
2017-02-05T00:24:36.817Z,0
2017-02-05T00:25:47.061Z,0
2017-02-05T00:26:57.649Z,0
2017-02-05T00:28:07.331Z,0
2017-02-05T00:29:17.584Z,0
2017-02-05T00:30:27.418Z,0
2017-02-05T00:31:37.717Z,0
2017-02-05T00:32:48.288Z,0
2017-02-05T00:33:58.639Z,0
2017-02-05T00:35:08.467Z,0
2017-02-05T00:36:18.708Z,0
2017-02-05T00:37:29.124Z,0
2017-02-05T00:38:39.639Z,0
2017-02-05T00:39:49.903Z,0
2017-02-05T00:41:00.230Z,0
2017-02-05T00:42:10.486Z,0
2017-02-05T00:43:19.927Z,0
2017-02-05T00:44:29.623Z,0
2017-02-05T00:45:39.877Z,0
2017-02-05T00:46:50.112Z,0
2017-02-05T00:47:59.958Z,0
2017-02-05T00:49:10.233Z,0
2017-02-05T00:50:19.922Z,0
2017-02-05T00:51:29.751Z,0
2017-02-05T00:52:39.235Z,0
2017-02-05T00:53:49.548Z,0
2017-02-05T00:54:59.398Z,0
2017-02-05T00:56:10.120Z,0
2017-02-05T00:57:20.004Z,0
2017-02-05T00:58:30.588Z,0
2017-02-05T00:59:40.578Z,0
2017-02-05T01:00:50.166Z,0
2017-02-05T01:02:00.716Z,0
2017-02-05T01:03:09.830Z,0
2017-02-05T01:04:19.704Z,0
2017-02-05T01:05:29.548Z,0
2017-02-05T01:06:39.888Z,0
2017-02-05T01:07:50.463Z,0
2017-02-05T01:09:00.834Z,0
2017-02-05T01:10:10.722Z,0
2017-02-05T01:11:21.065Z,0
2017-02-05T01:12:31.332Z,0
2017-02-05T01:13:41.884Z,0
2017-02-05T01:14:51.719Z,0
2017-02-05T01:16:01.647Z,0
2017-02-05T01:17:11.547Z,0
2017-02-05T01:18:21.545Z,0
2017-02-05T01:19:32.057Z,0
2017-02-05T01:20:42.339Z,0
2017-02-05T01:21:52.793Z,0
2017-02-05T01:23:02.297Z,0
2017-02-05T01:24:12.540Z,0
2017-02-05T01:25:22.250Z,0
2017-02-05T01:26:32.536Z,0
2017-02-05T01:27:42.823Z,0
2017-02-05T01:28:53.070Z,0
2017-02-05T01:30:03.310Z,0
2017-02-05T01:31:13.481Z,0
2017-02-05T01:32:23.846Z,0
2017-02-05T01:33:34.174Z,0
2017-02-05T01:34:44.426Z,0
2017-02-05T01:35:54.294Z,0
2017-02-05T01:37:04.386Z,0
2017-02-05T01:38:14.233Z,0
2017-02-05T01:39:24.519Z,0
2017-02-05T01:40:34.772Z,0
2017-02-05T01:41:44.683Z,0
2017-02-05T01:42:54.797Z,0
2017-02-05T01:44:05.087Z,0
2017-02-05T01:45:15.485Z,0
2017-02-05T01:46:25.016Z,0
2017-02-05T01:47:35.008Z,0
2017-02-05T01:48:45.198Z,0
2017-02-05T01:49:55.472Z,0
2017-02-05T01:51:04.907Z,0
2017-02-05T01:52:14.768Z,0
2017-02-05T01:53:24.643Z,0
2017-02-05T01:54:34.738Z,0
2017-02-05T01:55:44.972Z,0
2017-02-05T01:56:54.411Z,0
2017-02-05T01:58:04.261Z,0
2017-02-05T01:59:14.097Z,0
2017-02-05T02:00:23.892Z,0
2017-02-05T02:01:34.166Z,0
2017-02-05T02:02:44.415Z,0
2017-02-05T02:03:54.699Z,0
2017-02-05T02:05:04.136Z,0
2017-02-05T02:06:14.238Z,0
2017-02-05T02:07:24.497Z,0
2017-02-05T02:08:34.337Z,0
2017-02-05T02:09:44.187Z,0
2017-02-05T02:10:54.182Z,0
2017-02-05T02:12:04.685Z,0
2017-02-05T02:13:14.916Z,0
2017-02-05T02:14:24.865Z,0
2017-02-05T02:15:34.692Z,0
2017-02-05T02:16:44.931Z,0
2017-02-05T02:17:55.411Z,0
2017-02-05T02:19:05.295Z,0
2017-02-05T02:20:15.566Z,0
2017-02-05T02:21:25.572Z,0
2017-02-05T02:22:36.197Z,0
2017-02-05T02:23:46.683Z,0
2017-02-05T02:24:56.123Z,0
2017-02-05T02:26:05.998Z,0
2017-02-05T02:27:16.234Z,0
2017-02-05T02:28:26.459Z,0
2017-02-05T02:29:37.100Z,0
2017-02-05T02:30:47.365Z,0
2017-02-05T02:31:57.208Z,0
2017-02-05T02:33:07.510Z,0
2017-02-05T02:34:17.375Z,0
2017-02-05T02:35:27.932Z,0
2017-02-05T02:36:37.827Z,0
2017-02-05T02:37:47.665Z,0
2017-02-05T02:38:57.937Z,0
2017-02-05T02:40:07.381Z,0
2017-02-05T02:41:17.496Z,0
2017-02-05T02:42:27.835Z,0
2017-02-05T02:43:37.672Z,0
2017-02-05T02:44:47.913Z,0
2017-02-05T02:45:58.343Z,0
2017-02-05T02:47:08.081Z,0
2017-02-05T02:48:17.965Z,0
2017-02-05T02:49:27.802Z,0
2017-02-05T02:50:38.046Z,0
2017-02-05T02:51:47.914Z,0
2017-02-05T02:52:58.406Z,0
2017-02-05T02:54:07.876Z,0
2017-02-05T02:55:18.104Z,0
2017-02-05T02:56:28.344Z,0
2017-02-05T02:57:38.579Z,0
2017-02-05T02:58:49.073Z,0
2017-02-05T02:59:59.301Z,0
2017-02-05T03:01:09.588Z,0
2017-02-05T03:02:19.842Z,0
2017-02-05T03:03:29.732Z,0
2017-02-05T03:04:39.860Z,0
2017-02-05T03:05:49.324Z,0
2017-02-05T03:06:59.195Z,0
2017-02-05T03:08:09.472Z,0
2017-02-05T03:09:18.940Z,0
2017-02-05T03:10:29.432Z,0
2017-02-05T03:11:39.331Z,0
2017-02-05T03:12:49.592Z,0
2017-02-05T03:13:59.833Z,0
2017-02-05T03:15:09.273Z,0
2017-02-05T03:16:18.998Z,0
2017-02-05T03:17:28.837Z,0
2017-02-05T03:18:39.231Z,0
2017-02-05T03:19:49.058Z,0
2017-02-05T03:20:59.409Z,0
2017-02-05T03:22:09.154Z,0
2017-02-05T03:23:19.055Z,0
2017-02-05T03:24:29.403Z,0
2017-02-05T03:25:39.254Z,0
2017-02-05T03:26:49.104Z,0
2017-02-05T03:27:59.781Z,0
2017-02-05T03:29:09.619Z,0
2017-02-05T03:30:19.459Z,0
2017-02-05T03:31:29.326Z,0
2017-02-05T03:32:39.565Z,0
2017-02-05T03:33:49.715Z,0
2017-02-05T03:34:59.135Z,0
2017-02-05T03:36:08.604Z,0
2017-02-05T03:37:18.860Z,0
2017-02-05T03:38:28.767Z,0
2017-02-05T03:39:38.902Z,0
2017-02-05T03:40:49.246Z,0
2017-02-05T03:41:59.156Z,0
2017-02-05T03:43:08.998Z,0
2017-02-05T03:44:19.237Z,0
2017-02-05T03:45:28.955Z,0
2017-02-05T03:46:38.814Z,0
2017-02-05T03:47:49.040Z,0
2017-02-05T03:48:58.872Z,0
2017-02-05T03:50:08.704Z,0
2017-02-05T03:51:18.792Z,0
2017-02-05T03:52:28.241Z,0
2017-02-05T03:53:38.482Z,0
2017-02-05T03:54:48.729Z,0
2017-02-05T03:55:58.556Z,0
2017-02-05T03:57:08.656Z,0
2017-02-05T03:58:18.969Z,0
2017-02-05T03:59:29.217Z,0
2017-02-05T04:00:39.068Z,0
2017-02-05T04:01:49.345Z,0
2017-02-05T04:02:59.541Z,0
2017-02-05T04:04:09.837Z,0
2017-02-05T04:05:20.127Z,0
2017-02-05T04:06:30.368Z,0
2017-02-05T04:07:40.624Z,0
2017-02-05T04:08:51.127Z,0
2017-02-05T04:10:01.383Z,0
2017-02-05T04:11:10.898Z,0
2017-02-05T04:12:21.451Z,0
2017-02-05T04:13:31.680Z,0
2017-02-05T04:14:42.225Z,0
2017-02-05T04:15:52.465Z,0
2017-02-05T04:17:02.301Z,0
2017-02-05T04:18:12.192Z,0
2017-02-05T04:19:22.462Z,0
2017-02-05T04:20:32.628Z,0
2017-02-05T04:21:42.490Z,0
2017-02-05T04:22:52.954Z,0
2017-02-05T04:24:03.447Z,0
2017-02-05T04:25:15.323Z,0
2017-02-05T04:26:25.014Z,0
2017-02-05T04:27:35.242Z,0
2017-02-05T04:28:44.754Z,0
2017-02-05T04:29:56.067Z,0
2017-02-05T04:31:07.134Z,0
2017-02-05T04:32:18.271Z,0
2017-02-05T04:33:27.899Z,0
2017-02-05T04:34:37.737Z,0
2017-02-05T04:35:49.210Z,0
2017-02-05T04:36:59.738Z,0
2017-02-05T04:38:09.035Z,0
2017-02-05T04:39:19.756Z,0
2017-02-05T04:40:29.645Z,0
2017-02-05T04:41:39.926Z,0
2017-02-05T04:42:50.159Z,0
2017-02-05T04:44:00.277Z,0
2017-02-05T04:45:10.529Z,0
2017-02-05T04:46:20.877Z,0
2017-02-05T04:47:30.712Z,0
2017-02-05T04:48:41.011Z,0
2017-02-05T04:49:51.106Z,0
2017-02-05T04:51:01.377Z,0
2017-02-05T04:52:10.821Z,0
2017-02-05T04:53:21.063Z,0
2017-02-05T04:54:31.364Z,0
2017-02-05T04:55:41.951Z,0
2017-02-05T04:56:52.220Z,0
2017-02-05T04:58:02.469Z,0
2017-02-05T04:59:12.745Z,0
2017-02-05T05:00:22.691Z,0
2017-02-05T05:01:33.202Z,0
2017-02-05T05:02:43.440Z,0
2017-02-05T05:03:53.309Z,0
2017-02-05T05:05:02.746Z,0
2017-02-05T05:06:13.067Z,0
2017-02-05T05:07:23.704Z,0
2017-02-05T05:08:33.938Z,0
2017-02-05T05:09:44.185Z,0
2017-02-05T05:10:54.037Z,0
2017-02-05T05:12:04.116Z,0
2017-02-05T05:13:14.682Z,0
2017-02-05T05:14:24.940Z,0
2017-02-05T05:15:34.415Z,0
2017-02-05T05:16:44.667Z,0
2017-02-05T05:17:54.545Z,0
2017-02-05T05:19:04.249Z,0
2017-02-05T05:20:14.642Z,0
2017-02-05T05:21:24.916Z,0
2017-02-05T05:22:35.150Z,0
2017-02-05T05:23:45.409Z,0
2017-02-05T05:24:55.176Z,0
2017-02-05T05:26:05.418Z,0
2017-02-05T05:27:15.313Z,0
2017-02-05T05:28:25.193Z,0
2017-02-05T05:29:34.673Z,0
2017-02-05T05:30:44.386Z,0
2017-02-05T05:31:54.250Z,0
2017-02-05T05:33:03.697Z,0
2017-02-05T05:34:13.926Z,0
2017-02-05T05:35:23.358Z,0
2017-02-05T05:36:33.953Z,0
2017-02-05T05:37:44.186Z,0
2017-02-05T05:38:54.447Z,0
2017-02-05T05:40:04.294Z,0
2017-02-05T05:41:14.558Z,0
2017-02-05T05:42:25.129Z,0
2017-02-05T05:43:35.429Z,0
2017-02-05T05:44:45.389Z,0
2017-02-05T05:45:55.679Z,0
2017-02-05T05:47:05.956Z,0
2017-02-05T05:48:16.528Z,0
2017-02-05T05:49:26.773Z,0
2017-02-05T05:50:36.237Z,0
2017-02-05T05:51:46.483Z,0
2017-02-05T05:52:56.745Z,0
2017-02-05T05:54:06.820Z,0
2017-02-05T05:55:17.174Z,0
2017-02-05T05:56:27.473Z,0
2017-02-05T05:57:37.007Z,0
2017-02-05T05:58:46.871Z,0
2017-02-05T05:59:56.970Z,0
2017-02-05T06:01:06.830Z,0
2017-02-05T06:02:16.378Z,0
2017-02-05T06:03:26.786Z,0
2017-02-05T06:04:37.030Z,0
2017-02-05T06:05:47.576Z,0
2017-02-05T06:06:58.062Z,0
2017-02-05T06:08:07.894Z,0
2017-02-05T06:09:17.324Z,0
2017-02-05T06:10:27.826Z,0
2017-02-05T06:11:38.350Z,0
2017-02-05T06:12:47.787Z,0
2017-02-05T06:13:58.076Z,0
2017-02-05T06:15:08.319Z,0
2017-02-05T06:16:18.234Z,0
2017-02-05T06:17:28.431Z,0
2017-02-05T06:18:38.729Z,0
2017-02-05T06:19:48.677Z,0
2017-02-05T06:20:58.967Z,0
2017-02-05T06:22:08.430Z,0
2017-02-05T06:23:18.511Z,0
2017-02-05T06:24:28.352Z,0
2017-02-05T06:25:38.196Z,0
2017-02-05T06:26:48.021Z,0
2017-02-05T06:27:58.280Z,0
2017-02-05T06:29:08.836Z,0
2017-02-05T06:30:19.109Z,0
2017-02-05T06:31:29.012Z,0
2017-02-05T06:32:38.853Z,0
2017-02-05T06:33:49.080Z,0
2017-02-05T06:34:59.626Z,0
2017-02-05T06:36:09.458Z,0
2017-02-05T06:37:18.939Z,0
2017-02-05T06:38:28.375Z,0
2017-02-05T06:39:38.339Z,0
2017-02-05T06:40:48.826Z,0
2017-02-05T06:41:58.696Z,0
2017-02-05T06:43:08.539Z,0
2017-02-05T06:44:18.829Z,0
2017-02-05T06:45:29.114Z,0
2017-02-05T06:46:39.193Z,0
2017-02-05T06:47:48.626Z,0
2017-02-05T06:48:58.453Z,0
2017-02-05T06:50:08.430Z,5
2017-02-05T06:51:17.887Z,5
2017-02-05T06:52:28.415Z,5
2017-02-05T06:53:38.268Z,5
2017-02-05T06:54:48.504Z,5
2017-02-05T06:55:57.954Z,5
2017-02-05T06:57:08.273Z,5
2017-02-05T06:58:18.909Z,5
2017-02-05T06:59:29.174Z,10
2017-02-05T07:00:39.451Z,10
2017-02-05T07:01:49.294Z,10
2017-02-05T07:02:59.660Z,10
2017-02-05T07:04:08.983Z,10
2017-02-05T07:05:19.235Z,10
2017-02-05T07:06:29.505Z,10
2017-02-05T07:07:39.358Z,10
2017-02-05T07:08:49.239Z,10
2017-02-05T07:09:59.773Z,15
2017-02-05T07:11:10.062Z,15
2017-02-05T07:12:20.347Z,15
2017-02-05T07:13:30.258Z,15
2017-02-05T07:14:39.705Z,15
2017-02-05T07:15:49.861Z,20
2017-02-05T07:17:00.115Z,20
2017-02-05T07:18:10.454Z,20
2017-02-05T07:19:20.323Z,20
2017-02-05T07:20:30.163Z,20
2017-02-05T07:21:40.688Z,20
2017-02-05T07:22:50.992Z,20
2017-02-05T07:24:00.426Z,20
2017-02-05T07:25:10.678Z,25
2017-02-05T07:26:20.532Z,25
2017-02-05T07:27:30.234Z,25
2017-02-05T07:28:40.512Z,25
2017-02-05T07:29:50.784Z,25
2017-02-05T07:31:01.012Z,30
2017-02-05T07:32:10.873Z,30
2017-02-05T07:33:21.058Z,30
2017-02-05T07:34:31.300Z,30
2017-02-05T07:35:41.479Z,35
2017-02-05T07:36:51.830Z,35
2017-02-05T07:38:02.166Z,40
2017-02-05T07:39:12.653Z,40
2017-02-05T07:40:22.988Z,45
2017-02-05T07:41:32.850Z,45
2017-02-05T07:42:42.709Z,45
2017-02-05T07:43:53.060Z,45
2017-02-05T07:45:03.169Z,45
2017-02-05T07:46:13.066Z,45
2017-02-05T07:47:23.357Z,45
2017-02-05T07:48:33.256Z,45
2017-02-05T07:49:43.551Z,50
2017-02-05T07:50:53.852Z,50
2017-02-05T07:52:04.158Z,50
2017-02-05T07:53:14.015Z,50
2017-02-05T07:54:23.053Z,55
2017-02-05T07:55:32.942Z,55
2017-02-05T07:56:43.516Z,55
2017-02-05T07:57:52.181Z,55
2017-02-05T07:59:01.617Z,55
2017-02-05T08:00:11.915Z,60
2017-02-05T08:01:21.800Z,65
2017-02-05T08:02:32.420Z,70
2017-02-05T08:03:42.294Z,70
2017-02-05T08:04:52.529Z,75
2017-02-05T08:06:01.977Z,80
2017-02-05T08:07:12.265Z,80
2017-02-05T08:08:22.379Z,75
2017-02-05T08:09:32.663Z,75
2017-02-05T08:10:42.566Z,75
2017-02-05T08:11:52.158Z,75
2017-02-05T08:13:02.433Z,80
2017-02-05T08:14:12.972Z,80
2017-02-05T08:15:22.854Z,80
2017-02-05T08:16:32.736Z,75
2017-02-05T08:17:42.267Z,65
2017-02-05T08:18:52.502Z,65
2017-02-05T08:20:03.111Z,70
2017-02-05T08:21:13.371Z,70
2017-02-05T08:22:23.708Z,75
2017-02-05T08:23:33.614Z,75
2017-02-05T08:24:43.166Z,70
2017-02-05T08:25:53.321Z,70
2017-02-05T08:27:02.784Z,75
2017-02-05T08:28:11.855Z,80
2017-02-05T08:29:22.161Z,80
2017-02-05T08:30:32.108Z,85
2017-02-05T08:31:42.292Z,85
2017-02-05T08:32:52.135Z,80
2017-02-05T08:34:02.096Z,80
2017-02-05T08:35:12.337Z,80
2017-02-05T08:36:22.861Z,85
2017-02-05T08:37:33.080Z,90
2017-02-05T08:38:42.559Z,95
2017-02-05T08:39:52.517Z,95
2017-02-05T08:41:02.374Z,95
2017-02-05T08:42:12.757Z,100
2017-02-05T08:43:23.267Z,100
2017-02-05T08:44:33.377Z,100
2017-02-05T08:45:43.234Z,110
2017-02-05T08:46:52.695Z,110
2017-02-05T08:48:02.963Z,115
2017-02-05T08:49:13.552Z,115
2017-02-05T08:50:23.390Z,115
2017-02-05T08:51:33.245Z,115
2017-02-05T08:52:43.265Z,120
2017-02-05T08:53:53.111Z,125
2017-02-05T08:55:03.253Z,130
2017-02-05T08:56:13.497Z,140
2017-02-05T08:57:23.991Z,140
2017-02-05T08:58:33.826Z,145
2017-02-05T08:59:44.290Z,150
2017-02-05T09:00:54.802Z,160
2017-02-05T09:02:05.092Z,180
2017-02-05T09:03:14.958Z,195
2017-02-05T09:04:24.855Z,220
2017-02-05T09:05:34.689Z,230
2017-02-05T09:06:44.923Z,220
2017-02-05T09:07:55.166Z,205
2017-02-05T09:09:05.405Z,195
2017-02-05T09:10:15.278Z,190
2017-02-05T09:11:25.535Z,185
2017-02-05T09:12:35.695Z,190
2017-02-05T09:13:44.735Z,195
2017-02-05T09:14:54.997Z,185
2017-02-05T09:16:05.255Z,175
2017-02-05T09:17:15.512Z,165
2017-02-05T09:18:25.617Z,155
2017-02-05T09:19:35.475Z,145
2017-02-05T09:20:45.730Z,145
2017-02-05T09:21:56.108Z,145
2017-02-05T09:23:06.411Z,150
2017-02-05T09:24:16.645Z,155
2017-02-05T09:25:26.504Z,145
2017-02-05T09:26:36.774Z,140
2017-02-05T09:27:46.624Z,135
2017-02-05T09:28:56.859Z,140
2017-02-05T09:30:07.067Z,145
2017-02-05T09:31:16.521Z,140
2017-02-05T09:32:26.804Z,130
2017-02-05T09:33:36.654Z,120
2017-02-05T09:34:46.102Z,120
2017-02-05T09:35:56.642Z,110
2017-02-05T09:37:06.944Z,110
2017-02-05T09:38:17.216Z,110
2017-02-05T09:39:27.085Z,110
2017-02-05T09:40:36.945Z,105
2017-02-05T09:41:47.118Z,110
2017-02-05T09:42:57.394Z,115
2017-02-05T09:44:07.585Z,115
2017-02-05T09:45:17.434Z,110
2017-02-05T09:46:27.272Z,110
2017-02-05T09:47:37.433Z,115
2017-02-05T09:48:47.693Z,110
2017-02-05T09:49:57.977Z,110
2017-02-05T09:51:08.225Z,110
2017-02-05T09:52:18.478Z,120
2017-02-05T09:53:29.048Z,125
2017-02-05T09:54:38.510Z,125
2017-02-05T09:55:48.814Z,130
2017-02-05T09:56:58.654Z,150
2017-02-05T09:58:08.501Z,180
2017-02-05T09:59:19.065Z,195
2017-02-05T10:00:29.314Z,205
2017-02-05T10:01:39.770Z,200
2017-02-05T10:02:50.080Z,195
2017-02-05T10:03:59.680Z,180
2017-02-05T10:05:09.840Z,165
2017-02-05T10:06:18.864Z,155
2017-02-05T10:07:29.195Z,145
2017-02-05T10:08:39.438Z,145
2017-02-05T10:09:49.728Z,145
2017-02-05T10:11:00.282Z,145
2017-02-05T10:12:10.562Z,140
2017-02-05T10:13:20.863Z,130
2017-02-05T10:14:30.715Z,125
2017-02-05T10:15:40.957Z,135
2017-02-05T10:16:51.904Z,145
2017-02-05T10:18:02.460Z,165
2017-02-05T10:19:12.763Z,180
2017-02-05T10:20:23.077Z,190
2017-02-05T10:21:32.563Z,195
2017-02-05T10:22:42.835Z,195
2017-02-05T10:23:52.989Z,185
2017-02-05T10:25:02.519Z,175
2017-02-05T10:26:12.470Z,170
2017-02-05T10:27:22.767Z,180
2017-02-05T10:28:33.012Z,190
2017-02-05T10:29:42.821Z,195
2017-02-05T10:30:52.662Z,210
2017-02-05T10:32:02.926Z,230
2017-02-05T10:33:13.244Z,245
2017-02-05T10:34:23.088Z,255
2017-02-05T10:35:33.635Z,265
2017-02-05T10:36:43.512Z,265
2017-02-05T10:37:53.361Z,260
2017-02-05T10:39:03.685Z,250
2017-02-05T10:40:13.140Z,240
2017-02-05T10:41:23.287Z,220
2017-02-05T10:42:33.530Z,200
2017-02-05T10:43:42.977Z,190
2017-02-05T10:44:52.443Z,175
2017-02-05T10:46:01.882Z,165
2017-02-05T10:47:12.685Z,165
2017-02-05T10:48:22.931Z,155
2017-02-05T10:49:33.164Z,155
2017-02-05T10:50:43.501Z,150
2017-02-05T10:51:53.447Z,145
2017-02-05T10:53:03.651Z,160
2017-02-05T10:54:13.943Z,175
2017-02-05T10:55:24.179Z,170
2017-02-05T10:56:34.026Z,170
2017-02-05T10:57:44.263Z,160
2017-02-05T10:58:54.940Z,140
2017-02-05T11:00:04.794Z,145
2017-02-05T11:01:14.639Z,145
2017-02-05T11:02:24.955Z,150
2017-02-05T11:03:35.394Z,155
2017-02-05T11:04:45.534Z,155
2017-02-05T11:05:55.768Z,155
2017-02-05T11:07:05.608Z,155
2017-02-05T11:08:15.959Z,150
2017-02-05T11:09:25.802Z,145
2017-02-05T11:10:36.423Z,140
2017-02-05T11:11:46.731Z,140
2017-02-05T11:12:56.590Z,150
2017-02-05T11:14:06.081Z,150
2017-02-05T11:15:16.335Z,150
2017-02-05T11:16:26.873Z,140
2017-02-05T11:17:36.727Z,130
2017-02-05T11:18:46.602Z,125
2017-02-05T11:19:56.844Z,130
2017-02-05T11:21:07.157Z,130
2017-02-05T11:22:17.425Z,135
2017-02-05T11:23:27.675Z,135
2017-02-05T11:24:37.135Z,140
2017-02-05T11:25:47.434Z,140
2017-02-05T11:26:57.296Z,140
2017-02-05T11:28:07.560Z,140
2017-02-05T11:29:17.404Z,140
2017-02-05T11:30:27.240Z,145
2017-02-05T11:31:37.493Z,145
2017-02-05T11:32:47.340Z,145
2017-02-05T11:33:57.624Z,140
2017-02-05T11:35:07.610Z,145
2017-02-05T11:36:17.461Z,145
2017-02-05T11:37:27.881Z,145
2017-02-05T11:38:37.395Z,145
2017-02-05T11:39:47.603Z,145
2017-02-05T11:41:29.692Z,145
2017-02-05T11:42:40.022Z,150
2017-02-05T11:43:50.281Z,155
2017-02-05T11:45:00.775Z,155
2017-02-05T11:46:11.064Z,165
2017-02-05T11:47:21.626Z,175
2017-02-05T11:48:31.894Z,190
2017-02-05T11:49:42.134Z,195
2017-02-05T11:50:52.394Z,195
2017-02-05T11:52:02.693Z,200
2017-02-05T11:53:13.026Z,205
2017-02-05T11:54:23.304Z,190
2017-02-05T11:55:33.632Z,190
2017-02-05T11:56:44.189Z,195
2017-02-05T11:57:53.938Z,195
2017-02-05T11:59:03.866Z,195
2017-02-05T12:00:14.218Z,190
2017-02-05T12:01:24.607Z,185
2017-02-05T12:02:34.799Z,180
2017-02-05T12:03:44.227Z,185
2017-02-05T12:04:54.106Z,190
2017-02-05T12:06:03.949Z,200
2017-02-05T12:07:13.857Z,205
2017-02-05T12:08:24.425Z,215
2017-02-05T12:09:34.719Z,220
2017-02-05T12:10:44.587Z,220
2017-02-05T12:11:54.431Z,210
2017-02-05T12:13:03.952Z,200
2017-02-05T12:14:14.510Z,195
2017-02-05T12:15:24.821Z,195
2017-02-05T12:16:35.143Z,195
2017-02-05T12:17:45.031Z,190
2017-02-05T12:18:54.937Z,190
2017-02-05T12:20:05.493Z,190
2017-02-05T12:21:15.361Z,190
2017-02-05T12:22:25.380Z,185
2017-02-05T12:23:35.272Z,180
2017-02-05T12:24:45.606Z,185
2017-02-05T12:25:56.129Z,190
2017-02-05T12:27:05.209Z,195
2017-02-05T12:28:14.771Z,200
2017-02-05T12:29:25.083Z,205
2017-02-05T12:30:34.975Z,210
2017-02-05T12:31:44.768Z,205
2017-02-05T12:32:54.619Z,210
2017-02-05T12:34:04.917Z,215
2017-02-05T12:35:15.255Z,220
2017-02-05T12:36:25.177Z,225
2017-02-05T12:37:35.061Z,230
2017-02-05T12:38:45.043Z,225
2017-02-05T12:39:54.485Z,220
2017-02-05T12:41:04.335Z,215
2017-02-05T12:42:14.276Z,215
2017-02-05T12:43:24.907Z,215
2017-02-05T12:44:35.210Z,220
2017-02-05T12:45:45.461Z,230
2017-02-05T12:46:55.311Z,230
2017-02-05T12:48:04.765Z,215
2017-02-05T12:49:14.993Z,200
2017-02-05T12:50:25.265Z,195
2017-02-05T12:51:35.156Z,195
2017-02-05T12:52:45.065Z,190
2017-02-05T12:53:54.950Z,185
2017-02-05T12:55:05.503Z,175
2017-02-05T12:56:15.466Z,175
2017-02-05T12:57:25.319Z,175
2017-02-05T12:58:35.222Z,170
2017-02-05T12:59:45.567Z,170
2017-02-05T13:00:56.940Z,175
2017-02-05T13:02:07.270Z,170
2017-02-05T13:03:16.720Z,170
2017-02-05T13:04:27.039Z,175
2017-02-05T13:05:36.967Z,185
2017-02-05T13:06:47.606Z,180
2017-02-05T13:07:58.695Z,175
2017-02-05T13:09:08.961Z,175
2017-02-05T13:10:18.439Z,180
2017-02-05T13:11:28.349Z,190
2017-02-05T13:12:39.011Z,195
2017-02-05T13:13:49.266Z,200
2017-02-05T13:14:59.263Z,200
2017-02-05T13:16:09.560Z,200
2017-02-05T13:17:19.881Z,205
2017-02-05T13:18:30.111Z,210
2017-02-05T13:19:39.966Z,210
2017-02-05T13:20:50.121Z,200
2017-02-05T13:22:00.387Z,185
2017-02-05T13:23:09.900Z,185
2017-02-05T13:24:20.076Z,195
2017-02-05T13:25:29.929Z,200
2017-02-05T13:26:40.187Z,200
2017-02-05T13:27:50.474Z,195
2017-02-05T13:29:00.774Z,190
2017-02-05T13:30:11.378Z,190
2017-02-05T13:31:21.257Z,185
2017-02-05T13:32:31.229Z,180
2017-02-05T13:33:40.309Z,175
2017-02-05T13:34:50.193Z,175
2017-02-05T13:36:00.326Z,185
2017-02-05T13:37:10.199Z,185
2017-02-05T13:38:20.059Z,195
2017-02-05T13:39:29.907Z,195
2017-02-05T13:40:40.206Z,185
2017-02-05T13:41:50.943Z,180
2017-02-05T13:43:01.295Z,170
2017-02-05T13:44:10.740Z,160
2017-02-05T13:45:20.989Z,150
2017-02-05T13:46:30.481Z,145
2017-02-05T13:47:40.586Z,150
2017-02-05T13:48:50.049Z,150
2017-02-05T13:50:00.309Z,150
2017-02-05T13:51:10.167Z,155
2017-02-05T13:52:20.088Z,160
2017-02-05T13:53:29.905Z,165
2017-02-05T13:54:40.210Z,150
2017-02-05T13:55:50.545Z,140
2017-02-05T13:57:00.821Z,135
2017-02-05T13:58:11.108Z,135
2017-02-05T13:59:21.271Z,135
2017-02-05T14:00:31.164Z,135
2017-02-05T14:01:41.048Z,135
2017-02-05T14:02:50.927Z,140
2017-02-05T14:04:00.786Z,145
2017-02-05T14:05:11.382Z,150
2017-02-05T14:06:20.880Z,150
2017-02-05T14:07:30.373Z,150
2017-02-05T14:08:40.279Z,140
2017-02-05T14:09:50.521Z,135
2017-02-05T14:11:00.667Z,130
2017-02-05T14:12:10.149Z,130
2017-02-05T14:13:20.482Z,145
2017-02-05T14:14:30.765Z,155
2017-02-05T14:15:41.093Z,155
2017-02-05T14:16:51.254Z,155
2017-02-05T14:18:01.109Z,150
2017-02-05T14:19:11.373Z,145
2017-02-05T14:20:21.365Z,135
2017-02-05T14:21:31.671Z,130
2017-02-05T14:22:42.318Z,135
2017-02-05T14:23:52.239Z,130
2017-02-05T14:25:01.715Z,130
2017-02-05T14:26:11.619Z,130
2017-02-05T14:27:21.925Z,140
2017-02-05T14:28:32.065Z,160
2017-02-05T14:29:42.323Z,170
2017-02-05T14:30:52.610Z,180
2017-02-05T14:32:02.459Z,180
2017-02-05T14:33:12.798Z,170
2017-02-05T14:34:23.371Z,155
2017-02-05T14:35:33.608Z,150
2017-02-05T14:36:43.438Z,140
2017-02-05T14:37:53.302Z,135
2017-02-05T14:39:02.859Z,130
2017-02-05T14:40:13.439Z,130
2017-02-05T14:41:23.461Z,135
2017-02-05T14:42:33.843Z,135
2017-02-05T14:43:43.298Z,130
2017-02-05T14:44:53.563Z,120
2017-02-05T14:46:03.763Z,120
2017-02-05T14:47:14.006Z,120
2017-02-05T14:48:23.916Z,115
2017-02-05T14:49:33.417Z,115
2017-02-05T14:50:43.308Z,110
2017-02-05T14:51:53.885Z,100
2017-02-05T14:53:04.133Z,95
2017-02-05T14:54:14.448Z,95
2017-02-05T14:55:24.730Z,95
2017-02-05T14:56:34.762Z,95
2017-02-05T14:57:44.996Z,90
2017-02-05T14:58:54.866Z,90
2017-02-05T15:00:04.753Z,85
2017-02-05T15:01:14.683Z,85
2017-02-05T15:02:24.967Z,80
2017-02-05T15:03:35.151Z,70
2017-02-05T15:04:45.136Z,65
2017-02-05T15:05:55.378Z,65
2017-02-05T15:07:05.335Z,60
2017-02-05T15:08:15.206Z,60
2017-02-05T15:09:25.374Z,60
2017-02-05T15:10:35.215Z,55
2017-02-05T15:11:45.139Z,55
2017-02-05T15:12:55.031Z,55
2017-02-05T15:14:04.475Z,55
2017-02-05T15:15:15.131Z,50
2017-02-05T15:16:25.071Z,50
2017-02-05T15:17:34.921Z,50
2017-02-05T15:18:45.319Z,50
2017-02-05T15:19:55.160Z,45
2017-02-05T15:21:05.690Z,45
2017-02-05T15:22:15.924Z,40
2017-02-05T15:23:26.053Z,35
2017-02-05T15:24:36.309Z,35
2017-02-05T15:25:46.588Z,35
2017-02-05T15:26:56.352Z,35
2017-02-05T15:28:06.664Z,40
2017-02-05T15:29:16.517Z,40
2017-02-05T15:30:26.776Z,35
2017-02-05T15:31:37.064Z,40
2017-02-05T15:32:47.248Z,40
2017-02-05T15:33:57.547Z,35
2017-02-05T15:35:08.046Z,35
2017-02-05T15:36:18.057Z,30
2017-02-05T15:37:27.978Z,25
2017-02-05T15:38:38.204Z,25
2017-02-05T15:39:49.983Z,20
2017-02-05T15:41:03.473Z,20
2017-02-05T15:42:15.725Z,20
2017-02-05T15:43:27.399Z,15
2017-02-05T15:44:37.778Z,15
2017-02-05T15:45:49.564Z,15
2017-02-05T15:47:06.518Z,10
2017-02-05T15:48:16.465Z,10
2017-02-05T15:49:26.784Z,10
2017-02-05T15:50:37.642Z,10
2017-02-05T15:51:47.942Z,10
2017-02-05T15:52:58.225Z,10
2017-02-05T15:54:08.493Z,10
2017-02-05T15:55:18.749Z,5
2017-02-05T15:56:28.967Z,5
2017-02-05T15:57:39.386Z,5
2017-02-05T15:58:49.469Z,5
2017-02-05T15:59:59.730Z,5
2017-02-05T16:01:09.981Z,5
2017-02-05T16:02:20.688Z,5
2017-02-05T16:03:31.032Z,5
2017-02-05T16:04:41.754Z,5
2017-02-05T16:05:52.091Z,0
2017-02-05T16:07:01.943Z,0
2017-02-05T16:08:11.391Z,0
2017-02-05T16:09:21.659Z,0
2017-02-05T16:10:31.824Z,0
2017-02-05T16:11:41.674Z,0
2017-02-05T16:12:51.136Z,0
2017-02-05T16:14:01.425Z,0
2017-02-05T16:15:11.295Z,0
2017-02-05T16:16:21.944Z,0
2017-02-05T16:17:32.219Z,0
2017-02-05T16:18:42.547Z,0
2017-02-05T16:19:52.433Z,0
2017-02-05T16:21:02.832Z,0
2017-02-05T16:22:13.022Z,0
2017-02-05T16:23:23.307Z,0
2017-02-05T16:24:33.581Z,0
2017-02-05T16:25:43.437Z,0
2017-02-05T16:26:52.904Z,0
2017-02-05T16:28:03.605Z,0
2017-02-05T16:29:13.884Z,0
2017-02-05T16:30:23.888Z,0
2017-02-05T16:31:33.749Z,0
2017-02-05T16:32:44.037Z,0
2017-02-05T16:33:53.867Z,0
2017-02-05T16:35:03.842Z,0
2017-02-05T16:36:14.181Z,0
2017-02-05T16:37:24.481Z,0
2017-02-05T16:38:34.772Z,0
2017-02-05T16:39:45.498Z,0
2017-02-05T16:40:55.388Z,0
2017-02-05T16:42:05.790Z,0
2017-02-05T16:43:16.028Z,0